sensor_id;sensor_type;location;lat;lon;timestamp;P1;durP1;ratioP1;P2;durP2;ratioP2
19883;SDS011;10104;50.732;10.174;2023-12-22T00:02:31;11.63;;;2.40;;
19883;SDS011;10104;50.732;10.174;2023-12-22T00:05:11;10.43;;;2.10;;
19883;SDS011;10104;50.732;10.174;2023-12-22T00:07:51;13.77;;;2.20;;
19883;SDS011;10104;50.732;10.174;2023-12-22T00:10:32;12.50;;;2.60;;
19883;SDS011;10104;50.732;10.174;2023-12-22T00:13:12;12.17;;;2.83;;
19883;SDS011;10104;50.732;10.174;2023-12-22T00:15:52;14.83;;;2.67;;
19883;SDS011;10104;50.732;10.174;2023-12-22T00:18:32;12.53;;;2.33;;
19883;SDS011;10104;50.732;10.174;2023-12-22T00:21:12;10.23;;;1.93;;
19883;SDS011;10104;50.732;10.174;2023-12-22T00:23:52;14.10;;;2.47;;
19883;SDS011;10104;50.732;10.174;2023-12-22T00:26:32;14.13;;;2.63;;
19883;SDS011;10104;50.732;10.174;2023-12-22T00:29:12;15.87;;;2.70;;
19883;SDS011;10104;50.732;10.174;2023-12-22T00:31:53;13.67;;;2.70;;
19883;SDS011;10104;50.732;10.174;2023-12-22T00:34:33;9.70;;;2.50;;
19883;SDS011;10104;50.732;10.174;2023-12-22T00:37:13;11.10;;;2.33;;
19883;SDS011;10104;50.732;10.174;2023-12-22T00:39:54;22.23;;;2.40;;
19883;SDS011;10104;50.732;10.174;2023-12-22T00:42:37;8.40;;;2.07;;
19883;SDS011;10104;50.732;10.174;2023-12-22T00:45:17;16.70;;;3.20;;
19883;SDS011;10104;50.732;10.174;2023-12-22T00:47:58;16.97;;;3.00;;
19883;SDS011;10104;50.732;10.174;2023-12-22T00:50:38;11.40;;;2.40;;
19883;SDS011;10104;50.732;10.174;2023-12-22T00:53:18;9.00;;;2.33;;
19883;SDS011;10104;50.732;10.174;2023-12-22T00:55:59;11.50;;;2.90;;
19883;SDS011;10104;50.732;10.174;2023-12-22T00:58:40;10.93;;;2.70;;
19883;SDS011;10104;50.732;10.174;2023-12-22T01:01:20;12.13;;;2.40;;
19883;SDS011;10104;50.732;10.174;2023-12-22T01:04:01;12.07;;;2.03;;
19883;SDS011;10104;50.732;10.174;2023-12-22T01:06:41;16.47;;;2.80;;
19883;SDS011;10104;50.732;10.174;2023-12-22T01:09:21;14.80;;;2.33;;
19883;SDS011;10104;50.732;10.174;2023-12-22T01:12:02;14.07;;;2.03;;
19883;SDS011;10104;50.732;10.174;2023-12-22T01:14:43;12.60;;;2.67;;
19883;SDS011;10104;50.732;10.174;2023-12-22T01:17:25;13.07;;;2.93;;
19883;SDS011;10104;50.732;10.174;2023-12-22T01:20:05;15.10;;;2.40;;
19883;SDS011;10104;50.732;10.174;2023-12-22T01:22:46;13.20;;;2.77;;
19883;SDS011;10104;50.732;10.174;2023-12-22T01:25:27;10.53;;;1.83;;
19883;SDS011;10104;50.732;10.174;2023-12-22T01:28:07;11.83;;;2.50;;
19883;SDS011;10104;50.732;10.174;2023-12-22T01:30:47;10.20;;;2.60;;
19883;SDS011;10104;50.732;10.174;2023-12-22T01:33:27;8.70;;;1.87;;
19883;SDS011;10104;50.732;10.174;2023-12-22T01:36:08;14.13;;;2.27;;
19883;SDS011;10104;50.732;10.174;2023-12-22T01:38:48;10.43;;;2.47;;
19883;SDS011;10104;50.732;10.174;2023-12-22T01:41:28;5.00;;;1.90;;
19883;SDS011;10104;50.732;10.174;2023-12-22T01:44:09;7.03;;;1.70;;
19883;SDS011;10104;50.732;10.174;2023-12-22T01:46:49;10.83;;;1.90;;
19883;SDS011;10104;50.732;10.174;2023-12-22T01:49:30;5.97;;;1.63;;
19883;SDS011;10104;50.732;10.174;2023-12-22T01:52:11;9.27;;;2.10;;
19883;SDS011;10104;50.732;10.174;2023-12-22T01:54:51;7.00;;;1.97;;
19883;SDS011;10104;50.732;10.174;2023-12-22T01:57:32;11.87;;;2.00;;
19883;SDS011;10104;50.732;10.174;2023-12-22T02:00:15;9.00;;;1.83;;
19883;SDS011;10104;50.732;10.174;2023-12-22T02:02:56;6.00;;;1.43;;
19883;SDS011;10104;50.732;10.174;2023-12-22T02:05:36;7.73;;;1.93;;
19883;SDS011;10104;50.732;10.174;2023-12-22T02:08:19;10.53;;;2.03;;
19883;SDS011;10104;50.732;10.174;2023-12-22T02:11:01;8.13;;;1.47;;
19883;SDS011;10104;50.732;10.174;2023-12-22T02:13:42;9.27;;;1.83;;
19883;SDS011;10104;50.732;10.174;2023-12-22T02:16:45;8.23;;;1.63;;
19883;SDS011;10104;50.732;10.174;2023-12-22T02:19:40;11.27;;;1.80;;
19883;SDS011;10104;50.732;10.174;2023-12-22T02:22:22;7.13;;;1.50;;
19883;SDS011;10104;50.732;10.174;2023-12-22T02:25:03;7.17;;;1.47;;
19883;SDS011;10104;50.732;10.174;2023-12-22T02:27:45;5.70;;;1.60;;
19883;SDS011;10104;50.732;10.174;2023-12-22T02:30:32;8.27;;;1.77;;
19883;SDS011;10104;50.732;10.174;2023-12-22T02:33:17;8.67;;;1.30;;
19883;SDS011;10104;50.732;10.174;2023-12-22T02:36:01;4.60;;;1.13;;
19883;SDS011;10104;50.732;10.174;2023-12-22T02:38:43;11.70;;;1.47;;
19883;SDS011;10104;50.732;10.174;2023-12-22T02:41:25;7.83;;;1.67;;
19883;SDS011;10104;50.732;10.174;2023-12-22T02:44:05;4.93;;;1.30;;
19883;SDS011;10104;50.732;10.174;2023-12-22T02:46:46;9.13;;;1.90;;
19883;SDS011;10104;50.732;10.174;2023-12-22T02:49:26;7.33;;;1.50;;
19883;SDS011;10104;50.732;10.174;2023-12-22T02:52:06;6.27;;;1.30;;
19883;SDS011;10104;50.732;10.174;2023-12-22T02:54:46;10.77;;;1.73;;
19883;SDS011;10104;50.732;10.174;2023-12-22T02:57:29;6.40;;;1.53;;
19883;SDS011;10104;50.732;10.174;2023-12-22T03:00:10;5.90;;;1.53;;
19883;SDS011;10104;50.732;10.174;2023-12-22T03:02:50;5.23;;;1.40;;
19883;SDS011;10104;50.732;10.174;2023-12-22T03:05:30;4.30;;;1.60;;
19883;SDS011;10104;50.732;10.174;2023-12-22T03:08:11;7.43;;;1.83;;
19883;SDS011;10104;50.732;10.174;2023-12-22T03:10:51;5.13;;;1.17;;
19883;SDS011;10104;50.732;10.174;2023-12-22T03:13:31;5.27;;;1.27;;
19883;SDS011;10104;50.732;10.174;2023-12-22T03:16:11;11.33;;;1.80;;
19883;SDS011;10104;50.732;10.174;2023-12-22T03:18:51;7.70;;;1.87;;
19883;SDS011;10104;50.732;10.174;2023-12-22T03:21:32;6.67;;;1.30;;
19883;SDS011;10104;50.732;10.174;2023-12-22T03:24:12;12.27;;;1.60;;
19883;SDS011;10104;50.732;10.174;2023-12-22T03:26:52;8.50;;;1.60;;
19883;SDS011;10104;50.732;10.174;2023-12-22T03:29:32;6.60;;;1.67;;
19883;SDS011;10104;50.732;10.174;2023-12-22T03:32:12;7.23;;;1.47;;
19883;SDS011;10104;50.732;10.174;2023-12-22T03:34:52;5.17;;;1.37;;
19883;SDS011;10104;50.732;10.174;2023-12-22T03:37:33;8.00;;;1.37;;
19883;SDS011;10104;50.732;10.174;2023-12-22T03:40:13;9.43;;;1.80;;
19883;SDS011;10104;50.732;10.174;2023-12-22T03:42:54;6.17;;;1.40;;
19883;SDS011;10104;50.732;10.174;2023-12-22T03:45:34;9.40;;;1.70;;
19883;SDS011;10104;50.732;10.174;2023-12-22T03:48:14;4.80;;;1.00;;
19883;SDS011;10104;50.732;10.174;2023-12-22T03:50:54;5.27;;;1.50;;
19883;SDS011;10104;50.732;10.174;2023-12-22T03:53:35;7.40;;;1.70;;
19883;SDS011;10104;50.732;10.174;2023-12-22T03:56:15;4.67;;;1.10;;
19883;SDS011;10104;50.732;10.174;2023-12-22T03:58:55;7.80;;;1.70;;
19883;SDS011;10104;50.732;10.174;2023-12-22T04:01:35;4.50;;;1.20;;
19883;SDS011;10104;50.732;10.174;2023-12-22T04:04:16;10.63;;;1.57;;
19883;SDS011;10104;50.732;10.174;2023-12-22T04:06:56;7.23;;;1.63;;
19883;SDS011;10104;50.732;10.174;2023-12-22T04:09:39;6.23;;;1.13;;
19883;SDS011;10104;50.732;10.174;2023-12-22T04:12:19;7.97;;;1.50;;
19883;SDS011;10104;50.732;10.174;2023-12-22T04:14:59;13.03;;;1.90;;
19883;SDS011;10104;50.732;10.174;2023-12-22T04:17:39;8.43;;;1.23;;
19883;SDS011;10104;50.732;10.174;2023-12-22T04:20:19;3.73;;;1.57;;
19883;SDS011;10104;50.732;10.174;2023-12-22T04:23:00;4.80;;;1.10;;
19883;SDS011;10104;50.732;10.174;2023-12-22T04:25:40;4.23;;;1.30;;
19883;SDS011;10104;50.732;10.174;2023-12-22T04:28:20;7.57;;;1.57;;
19883;SDS011;10104;50.732;10.174;2023-12-22T04:31:00;5.30;;;1.07;;
19883;SDS011;10104;50.732;10.174;2023-12-22T04:33:40;10.13;;;1.70;;
19883;SDS011;10104;50.732;10.174;2023-12-22T04:36:20;3.93;;;1.10;;
19883;SDS011;10104;50.732;10.174;2023-12-22T04:39:00;7.70;;;1.20;;
19883;SDS011;10104;50.732;10.174;2023-12-22T04:41:41;7.67;;;1.70;;
19883;SDS011;10104;50.732;10.174;2023-12-22T04:44:21;6.83;;;1.30;;
19883;SDS011;10104;50.732;10.174;2023-12-22T04:47:01;6.90;;;1.70;;
19883;SDS011;10104;50.732;10.174;2023-12-22T04:49:42;6.23;;;1.60;;
19883;SDS011;10104;50.732;10.174;2023-12-22T04:52:22;8.57;;;1.40;;
19883;SDS011;10104;50.732;10.174;2023-12-22T04:55:02;6.03;;;1.57;;
19883;SDS011;10104;50.732;10.174;2023-12-22T04:57:42;5.27;;;1.43;;
19883;SDS011;10104;50.732;10.174;2023-12-22T05:00:22;8.77;;;1.93;;
19883;SDS011;10104;50.732;10.174;2023-12-22T05:03:03;9.90;;;1.47;;
19883;SDS011;10104;50.732;10.174;2023-12-22T05:05:43;8.60;;;1.73;;
19883;SDS011;10104;50.732;10.174;2023-12-22T05:08:23;7.40;;;1.30;;
19883;SDS011;10104;50.732;10.174;2023-12-22T05:11:03;5.60;;;1.40;;
19883;SDS011;10104;50.732;10.174;2023-12-22T05:13:44;8.90;;;1.30;;
19883;SDS011;10104;50.732;10.174;2023-12-22T05:16:25;9.27;;;1.47;;
19883;SDS011;10104;50.732;10.174;2023-12-22T05:19:05;6.97;;;1.43;;
19883;SDS011;10104;50.732;10.174;2023-12-22T05:21:45;5.13;;;1.60;;
19883;SDS011;10104;50.732;10.174;2023-12-22T05:24:25;4.70;;;1.50;;
19883;SDS011;10104;50.732;10.174;2023-12-22T05:27:05;7.67;;;1.80;;
19883;SDS011;10104;50.732;10.174;2023-12-22T05:29:46;3.33;;;1.07;;
19883;SDS011;10104;50.732;10.174;2023-12-22T05:32:26;8.43;;;1.33;;
19883;SDS011;10104;50.732;10.174;2023-12-22T05:35:06;6.87;;;1.33;;
19883;SDS011;10104;50.732;10.174;2023-12-22T05:37:47;5.07;;;1.03;;
19883;SDS011;10104;50.732;10.174;2023-12-22T05:40:28;4.20;;;0.87;;
19883;SDS011;10104;50.732;10.174;2023-12-22T05:43:08;3.17;;;0.70;;
19883;SDS011;10104;50.732;10.174;2023-12-22T05:45:48;4.33;;;1.00;;
19883;SDS011;10104;50.732;10.174;2023-12-22T05:48:29;4.50;;;1.23;;
19883;SDS011;10104;50.732;10.174;2023-12-22T05:51:09;7.03;;;1.27;;
19883;SDS011;10104;50.732;10.174;2023-12-22T05:53:53;4.77;;;0.80;;
19883;SDS011;10104;50.732;10.174;2023-12-22T05:56:34;3.63;;;1.43;;
19883;SDS011;10104;50.732;10.174;2023-12-22T05:59:14;5.30;;;1.20;;
19883;SDS011;10104;50.732;10.174;2023-12-22T06:01:54;7.90;;;1.30;;
19883;SDS011;10104;50.732;10.174;2023-12-22T06:04:34;3.20;;;1.30;;
19883;SDS011;10104;50.732;10.174;2023-12-22T06:07:15;6.97;;;1.57;;
19883;SDS011;10104;50.732;10.174;2023-12-22T06:09:55;7.00;;;1.40;;
19883;SDS011;10104;50.732;10.174;2023-12-22T06:12:36;5.40;;;1.30;;
19883;SDS011;10104;50.732;10.174;2023-12-22T06:15:16;6.37;;;1.27;;
19883;SDS011;10104;50.732;10.174;2023-12-22T06:17:57;6.50;;;1.10;;
19883;SDS011;10104;50.732;10.174;2023-12-22T06:20:38;4.73;;;1.27;;
19883;SDS011;10104;50.732;10.174;2023-12-22T06:23:18;5.93;;;0.90;;
19883;SDS011;10104;50.732;10.174;2023-12-22T06:25:58;6.10;;;1.23;;
19883;SDS011;10104;50.732;10.174;2023-12-22T06:28:39;3.77;;;0.73;;
19883;SDS011;10104;50.732;10.174;2023-12-22T06:31:21;4.27;;;1.03;;
19883;SDS011;10104;50.732;10.174;2023-12-22T06:34:01;2.00;;;1.03;;
19883;SDS011;10104;50.732;10.174;2023-12-22T06:36:43;4.43;;;0.97;;
19883;SDS011;10104;50.732;10.174;2023-12-22T06:39:23;2.50;;;0.90;;
19883;SDS011;10104;50.732;10.174;2023-12-22T06:42:03;2.70;;;0.77;;
19883;SDS011;10104;50.732;10.174;2023-12-22T06:44:45;4.00;;;0.70;;
19883;SDS011;10104;50.732;10.174;2023-12-22T06:47:25;3.77;;;0.63;;
19883;SDS011;10104;50.732;10.174;2023-12-22T06:50:07;1.77;;;0.57;;
19883;SDS011;10104;50.732;10.174;2023-12-22T06:52:48;3.20;;;0.80;;
19883;SDS011;10104;50.732;10.174;2023-12-22T06:55:30;1.37;;;0.63;;
19883;SDS011;10104;50.732;10.174;2023-12-22T06:58:10;2.53;;;0.63;;
19883;SDS011;10104;50.732;10.174;2023-12-22T07:00:51;3.50;;;1.03;;
19883;SDS011;10104;50.732;10.174;2023-12-22T07:03:31;3.00;;;0.90;;
19883;SDS011;10104;50.732;10.174;2023-12-22T07:06:11;1.23;;;0.50;;
19883;SDS011;10104;50.732;10.174;2023-12-22T07:09:27;6.33;;;1.10;;
19883;SDS011;10104;50.732;10.174;2023-12-22T07:12:03;1.03;;;0.50;;
19883;SDS011;10104;50.732;10.174;2023-12-22T07:14:44;2.87;;;0.50;;
19883;SDS011;10104;50.732;10.174;2023-12-22T07:17:26;0.73;;;0.60;;
19883;SDS011;10104;50.732;10.174;2023-12-22T07:20:06;1.13;;;1.03;;
19883;SDS011;10104;50.732;10.174;2023-12-22T07:22:48;2.93;;;0.80;;
19883;SDS011;10104;50.732;10.174;2023-12-22T07:25:34;1.27;;;0.73;;
19883;SDS011;10104;50.732;10.174;2023-12-22T07:28:15;3.70;;;0.93;;
19883;SDS011;10104;50.732;10.174;2023-12-22T07:30:57;4.50;;;0.50;;
19883;SDS011;10104;50.732;10.174;2023-12-22T07:33:37;3.30;;;0.97;;
19883;SDS011;10104;50.732;10.174;2023-12-22T07:36:17;3.23;;;0.60;;
19883;SDS011;10104;50.732;10.174;2023-12-22T07:39:02;4.70;;;0.90;;
19883;SDS011;10104;50.732;10.174;2023-12-22T07:41:42;6.93;;;0.77;;
19883;SDS011;10104;50.732;10.174;2023-12-22T07:44:23;4.90;;;1.07;;
19883;SDS011;10104;50.732;10.174;2023-12-22T07:47:03;3.00;;;1.00;;
19883;SDS011;10104;50.732;10.174;2023-12-22T07:49:44;2.87;;;0.77;;
19883;SDS011;10104;50.732;10.174;2023-12-22T07:52:27;1.70;;;0.53;;
19883;SDS011;10104;50.732;10.174;2023-12-22T07:55:07;2.33;;;0.60;;
19883;SDS011;10104;50.732;10.174;2023-12-22T07:57:51;0.70;;;0.70;;
19883;SDS011;10104;50.732;10.174;2023-12-22T08:00:31;0.90;;;0.60;;
19883;SDS011;10104;50.732;10.174;2023-12-22T08:03:11;3.63;;;0.60;;
19883;SDS011;10104;50.732;10.174;2023-12-22T08:05:52;2.00;;;0.70;;
19883;SDS011;10104;50.732;10.174;2023-12-22T08:08:33;3.87;;;0.70;;
19883;SDS011;10104;50.732;10.174;2023-12-22T08:11:14;4.40;;;1.00;;
19883;SDS011;10104;50.732;10.174;2023-12-22T08:13:54;1.23;;;0.60;;
19883;SDS011;10104;50.732;10.174;2023-12-22T08:16:34;1.43;;;0.70;;
19883;SDS011;10104;50.732;10.174;2023-12-22T08:19:15;2.53;;;0.80;;
19883;SDS011;10104;50.732;10.174;2023-12-22T08:21:55;2.90;;;0.70;;
19883;SDS011;10104;50.732;10.174;2023-12-22T08:24:37;2.20;;;0.67;;
19883;SDS011;10104;50.732;10.174;2023-12-22T08:27:17;1.23;;;0.80;;
19883;SDS011;10104;50.732;10.174;2023-12-22T08:29:57;2.93;;;0.90;;
19883;SDS011;10104;50.732;10.174;2023-12-22T08:32:38;1.17;;;0.63;;
19883;SDS011;10104;50.732;10.174;2023-12-22T08:35:19;4.77;;;1.07;;
19883;SDS011;10104;50.732;10.174;2023-12-22T08:37:59;2.37;;;0.90;;
19883;SDS011;10104;50.732;10.174;2023-12-22T08:40:40;6.63;;;1.10;;
19883;SDS011;10104;50.732;10.174;2023-12-22T08:43:20;5.17;;;0.87;;
19883;SDS011;10104;50.732;10.174;2023-12-22T08:46:00;5.07;;;1.37;;
19883;SDS011;10104;50.732;10.174;2023-12-22T08:48:40;3.67;;;1.30;;
19883;SDS011;10104;50.732;10.174;2023-12-22T08:51:20;5.93;;;1.37;;
19883;SDS011;10104;50.732;10.174;2023-12-22T08:54:00;5.13;;;1.07;;
19883;SDS011;10104;50.732;10.174;2023-12-22T08:56:41;4.37;;;1.17;;
19883;SDS011;10104;50.732;10.174;2023-12-22T08:59:22;3.87;;;1.20;;
19883;SDS011;10104;50.732;10.174;2023-12-22T09:02:02;5.50;;;1.03;;
19883;SDS011;10104;50.732;10.174;2023-12-22T09:04:42;7.23;;;1.20;;
19883;SDS011;10104;50.732;10.174;2023-12-22T09:07:23;4.70;;;1.20;;
19883;SDS011;10104;50.732;10.174;2023-12-22T09:10:04;5.63;;;1.20;;
19883;SDS011;10104;50.732;10.174;2023-12-22T09:12:47;3.73;;;1.23;;
19883;SDS011;10104;50.732;10.174;2023-12-22T09:15:27;4.93;;;1.50;;
19883;SDS011;10104;50.732;10.174;2023-12-22T09:18:07;8.53;;;1.43;;
19883;SDS011;10104;50.732;10.174;2023-12-22T09:20:47;3.20;;;1.30;;
19883;SDS011;10104;50.732;10.174;2023-12-22T09:23:28;6.00;;;1.70;;
19883;SDS011;10104;50.732;10.174;2023-12-22T09:26:09;4.03;;;1.20;;
19883;SDS011;10104;50.732;10.174;2023-12-22T09:28:49;5.03;;;1.70;;
19883;SDS011;10104;50.732;10.174;2023-12-22T09:31:29;6.23;;;1.60;;
19883;SDS011;10104;50.732;10.174;2023-12-22T09:34:09;4.43;;;1.37;;
19883;SDS011;10104;50.732;10.174;2023-12-22T09:36:49;7.50;;;1.67;;
19883;SDS011;10104;50.732;10.174;2023-12-22T09:39:29;12.30;;;2.07;;
19883;SDS011;10104;50.732;10.174;2023-12-22T09:42:10;6.73;;;1.50;;
19883;SDS011;10104;50.732;10.174;2023-12-22T09:44:50;3.20;;;1.00;;
19883;SDS011;10104;50.732;10.174;2023-12-22T09:47:33;8.20;;;1.73;;
19883;SDS011;10104;50.732;10.174;2023-12-22T09:50:15;5.40;;;1.20;;
19883;SDS011;10104;50.732;10.174;2023-12-22T09:52:55;4.60;;;1.40;;
19883;SDS011;10104;50.732;10.174;2023-12-22T09:55:36;9.37;;;1.73;;
19883;SDS011;10104;50.732;10.174;2023-12-22T09:58:18;3.20;;;0.97;;
19883;SDS011;10104;50.732;10.174;2023-12-22T10:00:59;4.13;;;1.23;;
19883;SDS011;10104;50.732;10.174;2023-12-22T10:03:42;4.50;;;1.53;;
19883;SDS011;10104;50.732;10.174;2023-12-22T10:06:25;5.00;;;1.27;;
19883;SDS011;10104;50.732;10.174;2023-12-22T10:09:06;4.80;;;1.23;;
19883;SDS011;10104;50.732;10.174;2023-12-22T10:11:48;5.10;;;1.17;;
19883;SDS011;10104;50.732;10.174;2023-12-22T10:14:32;3.73;;;1.00;;
19883;SDS011;10104;50.732;10.174;2023-12-22T10:17:16;3.37;;;1.00;;
19883;SDS011;10104;50.732;10.174;2023-12-22T10:19:58;6.00;;;1.20;;
19883;SDS011;10104;50.732;10.174;2023-12-22T10:22:38;3.13;;;0.90;;
19883;SDS011;10104;50.732;10.174;2023-12-22T10:25:23;4.97;;;1.40;;
19883;SDS011;10104;50.732;10.174;2023-12-22T10:28:10;4.17;;;1.07;;
19883;SDS011;10104;50.732;10.174;2023-12-22T10:30:50;4.93;;;1.03;;
19883;SDS011;10104;50.732;10.174;2023-12-22T10:33:31;1.67;;;0.80;;
19883;SDS011;10104;50.732;10.174;2023-12-22T10:36:11;2.93;;;1.00;;
19883;SDS011;10104;50.732;10.174;2023-12-22T10:38:52;2.30;;;0.57;;
19883;SDS011;10104;50.732;10.174;2023-12-22T10:41:33;2.40;;;0.70;;
19883;SDS011;10104;50.732;10.174;2023-12-22T10:44:13;1.93;;;0.50;;
19883;SDS011;10104;50.732;10.174;2023-12-22T10:46:54;2.30;;;1.10;;
19883;SDS011;10104;50.732;10.174;2023-12-22T10:49:35;1.83;;;0.50;;
19883;SDS011;10104;50.732;10.174;2023-12-22T10:52:17;1.13;;;0.40;;
19883;SDS011;10104;50.732;10.174;2023-12-22T10:54:58;0.83;;;0.50;;
19883;SDS011;10104;50.732;10.174;2023-12-22T10:57:39;1.90;;;0.63;;
19883;SDS011;10104;50.732;10.174;2023-12-22T11:00:20;0.50;;;0.43;;
19883;SDS011;10104;50.732;10.174;2023-12-22T11:03:01;2.03;;;0.73;;
19883;SDS011;10104;50.732;10.174;2023-12-22T11:05:46;3.37;;;1.00;;
19883;SDS011;10104;50.732;10.174;2023-12-22T11:08:27;2.70;;;0.60;;
19883;SDS011;10104;50.732;10.174;2023-12-22T11:11:13;3.03;;;0.90;;
19883;SDS011;10104;50.732;10.174;2023-12-22T11:13:56;3.17;;;0.77;;
19883;SDS011;10104;50.732;10.174;2023-12-22T11:16:38;0.87;;;0.67;;
19883;SDS011;10104;50.732;10.174;2023-12-22T11:19:20;2.57;;;0.70;;
19883;SDS011;10104;50.732;10.174;2023-12-22T11:22:03;5.33;;;0.70;;
19883;SDS011;10104;50.732;10.174;2023-12-22T11:24:46;1.43;;;0.73;;
19883;SDS011;10104;50.732;10.174;2023-12-22T11:27:28;1.40;;;0.90;;
19883;SDS011;10104;50.732;10.174;2023-12-22T11:30:09;6.33;;;1.70;;
19883;SDS011;10104;50.732;10.174;2023-12-22T11:32:51;4.13;;;1.50;;
19883;SDS011;10104;50.732;10.174;2023-12-22T11:35:33;3.13;;;0.70;;
19883;SDS011;10104;50.732;10.174;2023-12-22T11:38:14;12.50;;;4.07;;
19883;SDS011;10104;50.732;10.174;2023-12-22T11:40:55;0.87;;;0.57;;
19883;SDS011;10104;50.732;10.174;2023-12-22T11:43:35;2.43;;;0.60;;
19883;SDS011;10104;50.732;10.174;2023-12-22T11:46:18;3.47;;;1.17;;
19883;SDS011;10104;50.732;10.174;2023-12-22T11:48:58;2.33;;;0.97;;
19883;SDS011;10104;50.732;10.174;2023-12-22T11:51:38;3.03;;;0.83;;
19883;SDS011;10104;50.732;10.174;2023-12-22T12:03:05;1.07;;;0.47;;
19883;SDS011;10104;50.732;10.174;2023-12-22T12:05:47;2.67;;;0.93;;
19883;SDS011;10104;50.732;10.174;2023-12-22T12:08:29;1.73;;;0.80;;
19883;SDS011;10104;50.732;10.174;2023-12-22T12:11:10;1.97;;;1.20;;
19883;SDS011;10104;50.732;10.174;2023-12-22T12:13:50;2.50;;;1.43;;
19883;SDS011;10104;50.732;10.174;2023-12-22T12:16:31;2.07;;;1.23;;
19883;SDS011;10104;50.732;10.174;2023-12-22T12:19:11;1.33;;;0.70;;
19883;SDS011;10104;50.732;10.174;2023-12-22T12:21:52;1.30;;;0.73;;
19883;SDS011;10104;50.732;10.174;2023-12-22T12:24:33;4.03;;;1.90;;
19883;SDS011;10104;50.732;10.174;2023-12-22T12:27:17;2.57;;;1.30;;
19883;SDS011;10104;50.732;10.174;2023-12-22T12:29:59;4.03;;;2.23;;
19883;SDS011;10104;50.732;10.174;2023-12-22T12:32:46;2.87;;;2.30;;
19883;SDS011;10104;50.732;10.174;2023-12-22T12:35:28;1.77;;;1.00;;
19883;SDS011;10104;50.732;10.174;2023-12-22T12:38:09;3.83;;;1.00;;
19883;SDS011;10104;50.732;10.174;2023-12-22T12:40:50;3.40;;;1.20;;
19883;SDS011;10104;50.732;10.174;2023-12-22T12:43:32;7.93;;;1.00;;
19883;SDS011;10104;50.732;10.174;2023-12-22T12:46:12;4.23;;;1.17;;
19883;SDS011;10104;50.732;10.174;2023-12-22T12:49:02;3.47;;;1.27;;
19883;SDS011;10104;50.732;10.174;2023-12-22T12:51:44;3.57;;;1.50;;
19883;SDS011;10104;50.732;10.174;2023-12-22T12:54:27;4.37;;;1.30;;
19883;SDS011;10104;50.732;10.174;2023-12-22T12:57:12;2.10;;;1.10;;
19883;SDS011;10104;50.732;10.174;2023-12-22T12:59:54;1.73;;;0.87;;
19883;SDS011;10104;50.732;10.174;2023-12-22T13:02:35;2.50;;;1.10;;
19883;SDS011;10104;50.732;10.174;2023-12-22T13:05:20;1.37;;;0.90;;
19883;SDS011;10104;50.732;10.174;2023-12-22T13:10:55;4.40;;;1.00;;
19883;SDS011;10104;50.732;10.174;2023-12-22T13:13:41;2.10;;;0.90;;
19883;SDS011;10104;50.732;10.174;2023-12-22T13:16:25;2.23;;;1.20;;
19883;SDS011;10104;50.732;10.174;2023-12-22T13:19:10;2.13;;;0.77;;
19883;SDS011;10104;50.732;10.174;2023-12-22T13:21:50;1.23;;;0.83;;
19883;SDS011;10104;50.732;10.174;2023-12-22T13:24:31;2.23;;;1.07;;
19883;SDS011;10104;50.732;10.174;2023-12-22T13:27:11;2.00;;;0.80;;
19883;SDS011;10104;50.732;10.174;2023-12-22T13:29:51;1.73;;;0.80;;
19883;SDS011;10104;50.732;10.174;2023-12-22T13:32:33;2.43;;;1.17;;
19883;SDS011;10104;50.732;10.174;2023-12-22T13:35:14;1.83;;;0.80;;
19883;SDS011;10104;50.732;10.174;2023-12-22T13:37:55;1.93;;;1.10;;
19883;SDS011;10104;50.732;10.174;2023-12-22T13:40:35;1.27;;;0.63;;
19883;SDS011;10104;50.732;10.174;2023-12-22T13:43:16;1.97;;;0.80;;
19883;SDS011;10104;50.732;10.174;2023-12-22T13:45:56;2.20;;;0.93;;
19883;SDS011;10104;50.732;10.174;2023-12-22T13:48:37;1.20;;;0.90;;
19883;SDS011;10104;50.732;10.174;2023-12-22T13:51:18;0.73;;;0.60;;
19883;SDS011;10104;50.732;10.174;2023-12-22T13:53:58;1.90;;;0.83;;
19883;SDS011;10104;50.732;10.174;2023-12-22T13:56:39;1.83;;;1.13;;
19883;SDS011;10104;50.732;10.174;2023-12-22T13:59:30;5.20;;;1.80;;
19883;SDS011;10104;50.732;10.174;2023-12-22T14:02:11;5.43;;;0.70;;
19883;SDS011;10104;50.732;10.174;2023-12-22T14:04:51;0.90;;;0.77;;
19883;SDS011;10104;50.732;10.174;2023-12-22T14:07:32;2.37;;;0.80;;
19883;SDS011;10104;50.732;10.174;2023-12-22T14:10:13;2.17;;;0.87;;
19883;SDS011;10104;50.732;10.174;2023-12-22T14:12:54;1.67;;;0.90;;
19883;SDS011;10104;50.732;10.174;2023-12-22T14:15:34;2.00;;;0.90;;
19883;SDS011;10104;50.732;10.174;2023-12-22T14:18:24;3.03;;;1.27;;
19883;SDS011;10104;50.732;10.174;2023-12-22T14:21:04;3.83;;;1.20;;
19883;SDS011;10104;50.732;10.174;2023-12-22T14:23:45;3.80;;;1.20;;
19883;SDS011;10104;50.732;10.174;2023-12-22T14:26:25;2.87;;;1.40;;
19883;SDS011;10104;50.732;10.174;2023-12-22T14:29:05;3.40;;;1.10;;
19883;SDS011;10104;50.732;10.174;2023-12-22T14:31:49;2.33;;;1.40;;
19883;SDS011;10104;50.732;10.174;2023-12-22T14:34:32;5.23;;;1.40;;
19883;SDS011;10104;50.732;10.174;2023-12-22T14:37:13;2.73;;;1.53;;
19883;SDS011;10104;50.732;10.174;2023-12-22T14:39:53;3.73;;;1.50;;
19883;SDS011;10104;50.732;10.174;2023-12-22T14:42:33;4.73;;;1.30;;
19883;SDS011;10104;50.732;10.174;2023-12-22T14:45:13;3.23;;;1.17;;
19883;SDS011;10104;50.732;10.174;2023-12-22T14:47:53;4.27;;;1.23;;
19883;SDS011;10104;50.732;10.174;2023-12-22T14:50:35;1.60;;;1.03;;
19883;SDS011;10104;50.732;10.174;2023-12-22T14:53:15;3.90;;;1.43;;
19883;SDS011;10104;50.732;10.174;2023-12-22T14:55:55;4.53;;;1.20;;
19883;SDS011;10104;50.732;10.174;2023-12-22T14:58:37;3.97;;;1.50;;
19883;SDS011;10104;50.732;10.174;2023-12-22T15:01:19;2.50;;;1.20;;
19883;SDS011;10104;50.732;10.174;2023-12-22T15:03:59;2.37;;;1.33;;
19883;SDS011;10104;50.732;10.174;2023-12-22T15:06:40;4.03;;;1.47;;
19883;SDS011;10104;50.732;10.174;2023-12-22T15:09:23;1.87;;;1.20;;
19883;SDS011;10104;50.732;10.174;2023-12-22T15:12:03;0.80;;;0.60;;
19883;SDS011;10104;50.732;10.174;2023-12-22T15:14:44;1.10;;;0.80;;
19883;SDS011;10104;50.732;10.174;2023-12-22T15:17:27;1.43;;;0.80;;
19883;SDS011;10104;50.732;10.174;2023-12-22T15:20:07;2.70;;;0.90;;
19883;SDS011;10104;50.732;10.174;2023-12-22T15:22:51;1.13;;;0.70;;
19883;SDS011;10104;50.732;10.174;2023-12-22T15:25:31;0.67;;;0.60;;
19883;SDS011;10104;50.732;10.174;2023-12-22T15:28:11;0.80;;;0.60;;
19883;SDS011;10104;50.732;10.174;2023-12-22T15:30:52;0.50;;;0.50;;
19883;SDS011;10104;50.732;10.174;2023-12-22T15:33:32;0.33;;;0.33;;
19883;SDS011;10104;50.732;10.174;2023-12-22T15:36:18;0.97;;;0.50;;
19883;SDS011;10104;50.732;10.174;2023-12-22T15:38:59;0.63;;;0.50;;
19883;SDS011;10104;50.732;10.174;2023-12-22T15:41:40;0.80;;;0.60;;
19883;SDS011;10104;50.732;10.174;2023-12-22T15:44:20;0.63;;;0.40;;
19883;SDS011;10104;50.732;10.174;2023-12-22T15:47:00;1.70;;;0.50;;
19883;SDS011;10104;50.732;10.174;2023-12-22T15:49:40;0.60;;;0.40;;
19883;SDS011;10104;50.732;10.174;2023-12-22T15:52:20;0.43;;;0.43;;
19883;SDS011;10104;50.732;10.174;2023-12-22T15:55:01;0.70;;;0.63;;
19883;SDS011;10104;50.732;10.174;2023-12-22T15:57:41;0.77;;;0.70;;
19883;SDS011;10104;50.732;10.174;2023-12-22T16:00:21;0.73;;;0.70;;
19883;SDS011;10104;50.732;10.174;2023-12-22T16:03:01;0.70;;;0.70;;
19883;SDS011;10104;50.732;10.174;2023-12-22T16:05:43;1.53;;;1.00;;
19883;SDS011;10104;50.732;10.174;2023-12-22T16:08:23;0.93;;;0.87;;